St. Paul, Alberta

Past 24 Hour Conditions

This table is a summary of hourly weather conditions for the past 24 hours. This summary includes the following parameters: temperature, humidity, dew point, wind speed and direction, air pressure, visibility and/or wind chill and humidex.
Date / Time
(MDT)
Conditions Temp (°F) Humidity (%) Dew Point (°F) Wind (mph) Pressure (inches) Visibility (miles)
02 September 2014
00:00 N/A 44 97 43 W 2 N/A N/A
01 September 2014
23:00 N/A 43 95 42 WSW 4 N/A N/A
22:00 N/A 44 94 43 SSW 2 N/A N/A
21:00 N/A 46 90 43 SW 2 N/A N/A
20:00 N/A 50 80 45 WSW 7 N/A N/A
19:00 N/A 55 69 45 W 11 N/A N/A
18:00 N/A 57 63 44 W 10 N/A N/A
17:00 N/A 57 64 45 WSW 10 N/A N/A
16:00 N/A 55 71 46 WSW 10 N/A N/A
15:00 N/A 59 58 44 W 15 N/A N/A
14:00 N/A 59 54 43 W 12 N/A N/A
13:00 N/A 59 57 44 W 11 N/A N/A
12:00 N/A 60   56 44 W 11 N/A N/A
11:00 N/A 56 71 47 W 8 N/A N/A
10:00 N/A 51 84 46 WSW 7 N/A N/A
9:00 N/A 46 86 42 SW 9 N/A N/A
8:00 N/A 43 93 41 WSW 3 N/A N/A
7:00 N/A 39 96 38 SW 5 N/A N/A
6:00 N/A 40 98 39 WSW 9 N/A N/A
5:00 N/A 38   96 37 SW 5 N/A N/A
4:00 N/A 39 97 38 WSW 4 N/A N/A
3:00 N/A 40 97 39 SW 5 N/A N/A
2:00 N/A 42 98 41 WSW 4 N/A N/A
1:00 N/A 41 98 41 SW 5 N/A N/A
00:00 N/A 45 90 42 calm N/A N/A
N/A
Not available
 ↑ 
Highest temperature
 ↓ 
Lowest temperature

If you require additional historical weather information, please visit Climate Data Online.